createdAt,value
2019-02-28T00:01:34.485Z,67.60
2019-02-28T00:04:06.079Z,79.40
2019-02-28T00:06:36.384Z,84.70
2019-02-28T00:09:09.574Z,78.62
2019-02-28T00:11:41.218Z,72.22
2019-02-28T00:14:11.369Z,71.05
2019-02-28T00:16:41.614Z,74.00
2019-02-28T00:19:12.010Z,75.47
2019-02-28T00:21:42.300Z,68.87
2019-02-28T00:24:12.664Z,72.95
2019-02-28T00:26:46.308Z,76.17
2019-02-28T00:29:14.759Z,76.53
2019-02-28T00:31:49.460Z,78.50
2019-02-28T00:34:17.076Z,70.30
2019-02-28T00:36:47.268Z,70.42
2019-02-28T00:39:17.517Z,69.30
2019-02-28T00:41:47.699Z,73.80
2019-02-28T00:44:17.815Z,67.82
2019-02-28T00:46:48.072Z,64.77
2019-02-28T00:49:18.286Z,74.62
2019-02-28T00:51:49.665Z,74.05
2019-02-28T00:54:19.910Z,72.60
2019-02-28T00:56:52.537Z,66.57
2019-02-28T00:59:21.990Z,72.50
2019-02-28T01:01:52.112Z,70.20
2019-02-28T01:04:22.417Z,73.13
2019-02-28T01:06:52.640Z,71.17
2019-02-28T01:09:22.963Z,73.52
2019-02-28T01:11:53.028Z,72.37
2019-02-28T01:14:25.166Z,65.55
2019-02-28T01:16:55.347Z,65.52
2019-02-28T01:19:26.528Z,63.70
2019-02-28T01:21:56.904Z,72.23
2019-02-28T01:24:27.090Z,72.50
2019-02-28T01:26:57.127Z,67.32
2019-02-28T01:29:27.599Z,64.75
2019-02-28T01:31:57.919Z,64.37
2019-02-28T01:34:29.125Z,67.08
2019-02-28T01:36:59.960Z,60.65
2019-02-28T01:39:30.788Z,64.87
2019-02-28T01:42:01.129Z,73.33
2019-02-28T01:44:35.600Z,62.33
2019-02-28T01:47:03.057Z,62.85
2019-02-28T01:49:33.179Z,65.35
2019-02-28T01:52:03.542Z,59.42
2019-02-28T01:54:33.743Z,57.95
2019-02-28T01:57:05.078Z,65.20
2019-02-28T01:59:35.155Z,55.65
2019-02-28T02:02:06.656Z,60.12
2019-02-28T02:04:37.164Z,66.85
2019-02-28T02:07:07.347Z,68.00
2019-02-28T02:09:38.629Z,60.80
2019-02-28T02:12:08.878Z,67.27
2019-02-28T02:14:39.026Z,66.33
2019-02-28T02:17:09.373Z,66.17
2019-02-28T02:19:39.409Z,66.62
2019-02-28T02:22:10.215Z,63.63
2019-02-28T02:24:40.406Z,77.37
2019-02-28T02:27:10.563Z,69.87
2019-02-28T02:29:40.816Z,71.37
2019-02-28T02:32:12.037Z,71.25
2019-02-28T02:34:42.256Z,65.28
2019-02-28T02:37:12.460Z,67.87
2019-02-28T02:39:42.578Z,67.53
2019-02-28T02:42:13.106Z,66.40
2019-02-28T02:44:43.157Z,65.32
2019-02-28T02:47:14.378Z,59.38
2019-02-28T02:49:44.937Z,70.50
2019-02-28T02:52:15.119Z,70.67
2019-02-28T02:54:46.439Z,64.47
2019-02-28T02:57:16.690Z,63.50
2019-02-28T02:59:46.917Z,67.17
2019-02-28T03:02:16.982Z,65.47
2019-02-28T03:04:47.120Z,62.05
2019-02-28T03:07:23.034Z,65.12
2019-02-28T03:09:48.886Z,58.10
2019-02-28T03:12:19.087Z,74.77
2019-02-28T03:14:50.022Z,58.78
2019-02-28T03:17:20.262Z,56.17
2019-02-28T03:19:50.402Z,65.60
2019-02-28T03:22:28.324Z,65.60
2019-02-28T03:24:52.436Z,68.17
2019-02-28T03:27:23.652Z,59.70
2019-02-28T03:29:53.734Z,66.85
2019-02-28T03:32:23.862Z,64.50
2019-02-28T03:34:57.781Z,62.58
2019-02-28T03:37:32.793Z,64.42
2019-02-28T03:40:02.415Z,54.88
2019-02-28T03:42:30.690Z,58.45
2019-02-28T03:45:00.913Z,56.67
2019-02-28T03:47:32.260Z,60.40
2019-02-28T03:50:02.523Z,61.73
2019-02-28T03:52:32.780Z,60.15
2019-02-28T03:55:04.572Z,46.75
2019-02-28T03:57:39.941Z,50.52
2019-02-28T04:00:13.758Z,62.03
2019-02-28T04:02:43.890Z,63.87
2019-02-28T04:05:14.171Z,63.28
2019-02-28T04:07:44.519Z,61.80
2019-02-28T04:10:20.547Z,55.00
2019-02-28T04:12:49.555Z,54.77
2019-02-28T04:15:19.752Z,60.77
2019-02-28T04:17:49.911Z,64.37
2019-02-28T04:20:21.213Z,52.70
2019-02-28T04:22:55.254Z,56.18
2019-02-28T04:25:24.386Z,61.37
2019-02-28T04:27:54.766Z,51.35
2019-02-28T04:30:24.972Z,48.65
2019-02-28T04:33:01.067Z,52.73
2019-02-28T04:35:28.114Z,46.28
2019-02-28T04:37:58.155Z,54.63
2019-02-28T04:40:29.511Z,58.50
2019-02-28T04:42:59.824Z,54.30
2019-02-28T04:45:30.058Z,51.93
2019-02-28T04:48:00.275Z,57.30
2019-02-28T04:50:32.069Z,46.70
2019-02-28T04:53:02.595Z,53.05
2019-02-28T04:55:34.233Z,48.17
2019-02-28T04:58:04.751Z,46.87
2019-02-28T05:00:37.786Z,49.70
2019-02-28T05:03:06.795Z,47.78
2019-02-28T05:05:36.939Z,51.27
2019-02-28T05:08:07.118Z,43.47
2019-02-28T05:10:38.495Z,56.25
2019-02-28T05:13:11.402Z,58.05
2019-02-28T05:15:41.193Z,47.15
2019-02-28T05:18:11.627Z,42.98
2019-02-28T05:20:45.193Z,47.55
2019-02-28T05:23:13.697Z,42.88
2019-02-28T05:25:43.836Z,50.28
2019-02-28T05:28:13.991Z,49.98
2019-02-28T05:30:44.266Z,45.57
2019-02-28T05:33:14.616Z,50.57
2019-02-28T05:35:57.214Z,45.27
2019-02-28T05:38:28.541Z,45.67
2019-02-28T05:40:58.803Z,50.48
2019-02-28T05:43:29.317Z,45.77
2019-02-28T05:46:00.937Z,47.83
2019-02-28T05:48:31.219Z,52.80
2019-02-28T05:51:01.416Z,51.73
2019-02-28T05:53:31.718Z,48.55
2019-02-28T05:56:01.895Z,47.13
2019-02-28T05:58:32.137Z,46.60
2019-02-28T06:01:02.299Z,47.98
2019-02-28T06:03:32.718Z,50.67
2019-02-28T06:06:02.916Z,52.25
2019-02-28T06:08:35.495Z,50.12
2019-02-28T06:11:06.385Z,42.60
2019-02-28T06:13:37.122Z,45.48
2019-02-28T06:16:11.284Z,43.63
2019-02-28T06:18:39.739Z,51.10
2019-02-28T06:21:10.417Z,47.93
2019-02-28T06:23:41.671Z,45.40
2019-02-28T06:26:11.912Z,43.48
2019-02-28T06:28:43.328Z,50.80
2019-02-28T06:31:14.360Z,42.67
2019-02-28T06:33:45.628Z,45.00
2019-02-28T06:36:15.947Z,49.98
2019-02-28T06:38:46.035Z,45.00
2019-02-28T06:41:16.258Z,47.50
2019-02-28T06:43:46.438Z,39.98
2019-02-28T06:46:18.304Z,43.42
2019-02-28T06:48:49.077Z,38.60
2019-02-28T06:51:20.288Z,40.48
2019-02-28T06:53:50.432Z,45.98
2019-02-28T06:56:22.629Z,45.50
2019-02-28T06:58:53.406Z,41.28
2019-02-28T07:01:23.919Z,43.83
2019-02-28T07:03:54.089Z,44.08
2019-02-28T07:06:24.493Z,39.53
2019-02-28T07:08:54.712Z,39.92
2019-02-28T07:11:24.873Z,47.48
2019-02-28T07:13:55.030Z,39.65
2019-02-28T07:16:25.313Z,37.75
2019-02-28T07:18:55.576Z,34.38
2019-02-28T07:21:25.799Z,35.28
2019-02-28T07:23:56.256Z,35.68
2019-02-28T07:26:26.420Z,45.08
2019-02-28T07:28:56.608Z,42.35
2019-02-28T07:31:26.783Z,40.88
2019-02-28T07:33:57.002Z,44.10
2019-02-28T07:36:27.073Z,38.95
2019-02-28T07:38:57.832Z,43.00
2019-02-28T07:41:28.223Z,41.45
2019-02-28T07:43:59.063Z,44.10
2019-02-28T07:46:29.447Z,41.45
2019-02-28T07:49:00.875Z,38.48
2019-02-28T07:51:31.574Z,45.30
2019-02-28T07:54:01.728Z,49.85
2019-02-28T07:56:31.891Z,38.88
2019-02-28T07:59:05.245Z,43.13
2019-02-28T08:01:34.002Z,51.33
2019-02-28T08:04:04.165Z,40.75
2019-02-28T08:06:36.261Z,49.30
2019-02-28T08:09:18.229Z,43.73
2019-02-28T08:11:51.654Z,37.42
2019-02-28T08:14:20.282Z,43.78
2019-02-28T08:16:51.392Z,49.75
2019-02-28T08:19:22.840Z,40.92
2019-02-28T08:21:53.401Z,38.67
2019-02-28T08:24:23.647Z,38.30
2019-02-28T08:26:54.292Z,40.17
2019-02-28T08:29:24.565Z,45.17
2019-02-28T08:31:54.848Z,38.98
2019-02-28T08:34:26.202Z,39.15
2019-02-28T08:36:56.483Z,35.28
2019-02-28T08:39:26.699Z,38.40
2019-02-28T08:42:03.004Z,43.92
2019-02-28T08:44:29.014Z,41.77
2019-02-28T08:46:59.136Z,44.45
2019-02-28T08:49:29.447Z,38.50
2019-02-28T08:52:02.469Z,44.95
2019-02-28T08:54:32.656Z,36.95
2019-02-28T08:57:02.906Z,40.48
2019-02-28T08:59:33.183Z,49.18
2019-02-28T09:02:03.557Z,37.75
2019-02-28T09:04:41.002Z,39.73
2019-02-28T09:07:05.810Z,42.98
2019-02-28T09:09:36.067Z,40.88
2019-02-28T09:12:06.304Z,41.63
2019-02-28T09:14:36.588Z,45.65
2019-02-28T09:17:06.834Z,42.15
2019-02-28T09:19:37.015Z,44.15
2019-02-28T09:22:07.300Z,36.00
2019-02-28T09:24:37.528Z,49.10
2019-02-28T09:27:07.756Z,44.25
2019-02-28T09:29:38.004Z,45.75
2019-02-28T09:32:10.293Z,46.65
2019-02-28T09:34:41.289Z,44.70
2019-02-28T09:37:11.590Z,47.35
2019-02-28T09:39:41.829Z,44.48
2019-02-28T09:42:14.797Z,47.45
2019-02-28T09:44:43.933Z,39.15
2019-02-28T09:47:14.237Z,44.23
2019-02-28T09:49:47.167Z,40.75
2019-02-28T09:52:16.356Z,49.18
2019-02-28T09:54:46.552Z,54.35
2019-02-28T09:57:19.002Z,50.17
2019-02-28T09:59:50.223Z,44.50
2019-02-28T10:02:20.354Z,47.00
2019-02-28T10:04:50.548Z,43.83
2019-02-28T10:07:39.883Z,61.75
2019-02-28T10:10:20.314Z,74.58
2019-02-28T10:12:47.135Z,51.40
2019-02-28T10:15:19.003Z,49.75
2019-02-28T10:17:49.318Z,59.73
2019-02-28T10:20:26.317Z,55.12
2019-02-28T10:22:53.895Z,55.83
2019-02-28T10:25:25.232Z,57.53
2019-02-28T10:28:01.652Z,55.88
2019-02-28T10:30:31.845Z,57.40
2019-02-28T10:32:59.577Z,52.45
2019-02-28T10:35:29.741Z,49.30
2019-02-28T10:37:59.952Z,51.92
2019-02-28T10:40:30.347Z,67.97
2019-02-28T10:43:00.633Z,62.33
2019-02-28T10:45:31.054Z,48.75
2019-02-28T10:48:03.877Z,55.78
2019-02-28T10:50:34.239Z,48.70
2019-02-28T10:53:06.107Z,52.98
2019-02-28T10:55:36.771Z,51.83
2019-02-28T10:58:07.274Z,49.85
2019-02-28T11:00:40.473Z,57.15
2019-02-28T11:03:10.952Z,55.90
2019-02-28T11:05:41.767Z,57.48
2019-02-28T11:08:16.691Z,45.95
2019-02-28T11:10:46.570Z,45.67
2019-02-28T11:13:18.495Z,53.25
2019-02-28T11:15:49.450Z,52.62
2019-02-28T11:18:19.919Z,51.90
2019-02-28T11:20:50.198Z,53.17
2019-02-28T11:23:21.298Z,55.28
2019-02-28T11:25:53.055Z,46.42
2019-02-28T11:28:27.724Z,49.63
2019-02-28T11:30:55.323Z,51.13
2019-02-28T11:33:25.702Z,54.13
2019-02-28T11:35:59.119Z,49.35
2019-02-28T11:38:27.779Z,49.48
2019-02-28T11:40:58.121Z,49.80
2019-02-28T11:43:30.486Z,48.50
2019-02-28T11:46:02.973Z,45.63
2019-02-28T11:48:34.805Z,48.58
2019-02-28T11:51:05.403Z,55.65
2019-02-28T11:53:39.259Z,41.50
2019-02-28T11:56:08.167Z,46.18
2019-02-28T11:58:39.120Z,44.70
2019-02-28T12:01:10.513Z,44.93
2019-02-28T12:03:41.625Z,44.88
2019-02-28T12:06:11.825Z,47.78
2019-02-28T12:08:45.095Z,42.30
2019-02-28T12:11:14.030Z,37.83
2019-02-28T12:13:44.308Z,43.42
2019-02-28T12:16:16.222Z,39.25
2019-02-28T12:18:46.437Z,39.25
2019-02-28T12:21:16.740Z,37.83
2019-02-28T12:23:47.071Z,39.73
2019-02-28T12:26:17.775Z,38.80
2019-02-28T12:28:48.777Z,42.75
2019-02-28T12:31:18.943Z,43.38
2019-02-28T12:33:49.225Z,40.83
2019-02-28T12:36:19.363Z,46.92
2019-02-28T12:38:49.642Z,48.83
2019-02-28T12:41:21.681Z,45.90
2019-02-28T12:43:51.558Z,42.88
2019-02-28T12:46:24.884Z,43.02
2019-02-28T12:48:55.163Z,42.30
2019-02-28T12:51:25.377Z,47.23
2019-02-28T12:53:56.283Z,43.15
2019-02-28T12:56:27.543Z,42.83
2019-02-28T12:58:57.764Z,55.45
2019-02-28T13:01:27.836Z,49.48
2019-02-28T13:04:00.637Z,52.27
2019-02-28T13:06:29.898Z,44.95
2019-02-28T13:09:00.070Z,49.00
2019-02-28T13:11:30.088Z,52.30
2019-02-28T13:14:02.920Z,52.58
2019-02-28T13:16:32.056Z,52.08
2019-02-28T13:19:02.340Z,54.83
2019-02-28T13:21:32.520Z,55.48
2019-02-28T13:24:05.955Z,50.12
2019-02-28T13:26:34.884Z,57.78
2019-02-28T13:29:05.481Z,56.00
2019-02-28T13:31:35.777Z,58.15
2019-02-28T13:34:06.044Z,57.88
2019-02-28T13:36:36.269Z,60.12
2019-02-28T13:39:08.920Z,62.62
2019-02-28T13:41:39.296Z,55.23
2019-02-28T13:44:09.396Z,57.50
2019-02-28T13:46:39.676Z,55.50
2019-02-28T13:49:12.092Z,59.38
2019-02-28T13:51:42.648Z,68.25
2019-02-28T13:54:13.050Z,56.18
2019-02-28T13:56:44.520Z,55.23
2019-02-28T13:59:14.738Z,60.00
2019-02-28T14:01:45.061Z,63.83
2019-02-28T14:04:19.386Z,60.90
2019-02-28T14:06:48.033Z,62.88
2019-02-28T14:09:18.929Z,50.28
2019-02-28T14:11:51.857Z,54.90
2019-02-28T14:14:22.374Z,54.10
2019-02-28T14:16:52.530Z,54.15
2019-02-28T14:19:22.591Z,53.60
2019-02-28T14:21:53.846Z,62.62
2019-02-28T14:24:24.046Z,60.38
2019-02-28T14:26:54.208Z,56.45
2019-02-28T14:29:24.344Z,51.83
2019-02-28T14:31:54.556Z,44.35
2019-02-28T14:34:26.035Z,50.90
2019-02-28T14:36:56.783Z,47.83
2019-02-28T14:39:27.170Z,56.02
2019-02-28T14:41:57.268Z,42.33
2019-02-28T14:44:28.056Z,45.38
2019-02-28T14:46:59.237Z,52.43
2019-02-28T14:49:29.428Z,47.15
2019-02-28T14:52:00.338Z,51.18
2019-02-28T14:54:31.549Z,44.88
2019-02-28T14:57:01.597Z,52.60
2019-02-28T14:59:32.019Z,40.98
2019-02-28T15:02:02.176Z,52.78
2019-02-28T15:04:32.296Z,44.85
2019-02-28T15:07:04.251Z,39.05
2019-02-28T15:09:34.563Z,44.60
2019-02-28T15:12:04.853Z,37.70
2019-02-28T15:14:36.522Z,38.05
2019-02-28T15:17:07.590Z,36.50
2019-02-28T15:19:38.021Z,42.03
2019-02-28T15:22:08.207Z,39.58
2019-02-28T15:24:40.544Z,39.05
2019-02-28T15:27:10.525Z,40.03
2019-02-28T15:29:40.677Z,42.95
2019-02-28T15:32:10.774Z,43.90
2019-02-28T15:34:41.998Z,41.30
2019-02-28T15:37:12.339Z,50.45
2019-02-28T15:39:42.932Z,51.85
2019-02-28T15:42:13.361Z,45.45
2019-02-28T15:44:43.915Z,49.88
2019-02-28T15:47:14.097Z,52.25
2019-02-28T15:49:44.332Z,55.10
2019-02-28T15:52:14.697Z,56.08
2019-02-28T15:54:44.895Z,51.18
2019-02-28T15:57:15.101Z,49.33
2019-02-28T15:59:46.660Z,45.43
2019-02-28T16:02:17.872Z,49.63
2019-02-28T16:04:48.054Z,52.95
2019-02-28T16:07:18.436Z,53.85
2019-02-28T16:09:48.686Z,51.77
2019-02-28T16:12:18.938Z,47.40
2019-02-28T16:14:49.225Z,46.85
2019-02-28T16:17:19.485Z,47.15
2019-02-28T16:19:49.804Z,44.90
2019-02-28T16:22:20.027Z,50.70
2019-02-28T16:24:50.263Z,45.33
2019-02-28T16:27:20.374Z,38.75
2019-02-28T16:29:52.337Z,50.25
2019-02-28T16:32:22.521Z,48.45
2019-02-28T16:34:52.854Z,46.85
2019-02-28T16:37:23.149Z,42.78
2019-02-28T16:39:53.388Z,45.08
2019-02-28T16:42:23.932Z,47.03
2019-02-28T16:44:54.063Z,47.60
2019-02-28T16:47:25.175Z,51.13
2019-02-28T16:49:56.504Z,43.75
2019-02-28T16:52:26.751Z,40.98
2019-02-28T16:54:57.074Z,51.18
2019-02-28T16:57:27.266Z,52.75
2019-02-28T16:59:57.474Z,52.10
2019-02-28T17:02:29.328Z,55.43
2019-02-28T17:04:59.746Z,45.10
2019-02-28T17:07:30.042Z,45.45
2019-02-28T17:10:01.683Z,51.75
2019-02-28T17:12:59.520Z,48.10
2019-02-28T17:15:38.120Z,47.58
2019-02-28T17:18:13.040Z,49.10
2019-02-28T17:20:43.533Z,54.13
2019-02-28T17:23:13.775Z,58.40
2019-02-28T17:25:43.789Z,62.25
2019-02-28T17:28:33.096Z,57.93
2019-02-28T17:31:22.354Z,61.63
2019-02-28T17:33:52.650Z,69.85
2019-02-28T17:36:22.920Z,68.00
2019-02-28T17:38:53.224Z,59.65
2019-02-28T17:41:23.363Z,59.63
2019-02-28T17:44:34.036Z,56.95
2019-02-28T17:47:05.920Z,73.30
2019-02-28T17:50:14.379Z,71.85
2019-02-28T17:52:53.546Z,75.12
2019-02-28T17:56:04.186Z,64.65
2019-02-28T17:59:04.391Z,69.55
2019-02-28T18:02:05.143Z,68.50
2019-02-28T18:05:03.911Z,62.85
2019-02-28T18:08:12.912Z,67.60
2019-02-28T18:11:07.957Z,68.50
2019-02-28T18:14:09.502Z,62.75
2019-02-28T18:17:12.095Z,59.83
2019-02-28T18:20:05.879Z,47.45
2019-02-28T18:23:01.015Z,53.05
2019-02-28T18:26:09.447Z,54.50
2019-02-28T18:29:04.706Z,61.45
2019-02-28T18:31:35.843Z,53.30
2019-02-28T18:34:12.622Z,52.67
2019-02-28T18:36:43.433Z,50.73
2019-02-28T18:39:14.640Z,55.38
2019-02-28T18:41:44.765Z,52.98
2019-02-28T18:44:14.912Z,51.45
2019-02-28T18:46:45.330Z,47.20
2019-02-28T18:49:15.694Z,60.03
2019-02-28T18:51:46.179Z,62.67
2019-02-28T18:54:16.362Z,62.05
2019-02-28T18:56:46.617Z,59.80
2019-02-28T18:59:16.922Z,63.92
2019-02-28T19:01:47.278Z,60.70
2019-02-28T19:04:17.468Z,54.38
2019-02-28T19:06:47.653Z,62.30
2019-02-28T19:09:25.180Z,66.17
2019-02-28T19:11:55.716Z,51.15
2019-02-28T19:14:26.238Z,55.83
2019-02-28T19:16:56.526Z,47.15
2019-02-28T19:19:27.036Z,42.05
2019-02-28T19:21:57.246Z,30.82
2019-02-28T19:24:27.561Z,24.85
2019-02-28T19:26:57.718Z,16.17
2019-02-28T19:29:28.028Z,11.88
2019-02-28T19:31:58.356Z,8.38
2019-02-28T19:34:28.607Z,8.35
2019-02-28T19:36:58.903Z,11.55
2019-02-28T19:39:29.207Z,6.90
2019-02-28T19:41:59.547Z,8.18
2019-02-28T19:44:30.351Z,8.00
2019-02-28T19:47:00.598Z,7.35
2019-02-28T19:49:30.820Z,9.33
2019-02-28T19:52:01.075Z,10.35
2019-02-28T19:54:31.433Z,10.60
2019-02-28T19:57:02.818Z,7.47
2019-02-28T19:59:33.097Z,8.23
2019-02-28T20:02:03.466Z,8.90
2019-02-28T20:04:35.949Z,7.10
2019-02-28T20:07:06.179Z,13.55
2019-02-28T20:09:37.660Z,8.73
2019-02-28T20:12:19.787Z,6.35
2019-02-28T20:14:50.027Z,5.22
2019-02-28T20:17:20.434Z,6.20
2019-02-28T20:19:50.716Z,5.58
2019-02-28T20:22:21.071Z,11.70
2019-02-28T20:24:51.379Z,7.30
2019-02-28T20:27:21.931Z,5.85
2019-02-28T20:29:55.124Z,6.28
2019-02-28T20:32:25.119Z,8.03
2019-02-28T20:34:55.394Z,5.28
2019-02-28T20:37:25.866Z,6.20
2019-02-28T20:39:56.078Z,7.33
2019-02-28T20:42:26.517Z,6.33
2019-02-28T20:44:56.814Z,8.00
2019-02-28T20:47:28.248Z,9.58
2019-02-28T20:49:59.844Z,7.15
2019-02-28T20:52:30.133Z,12.70
2019-02-28T20:55:00.426Z,16.95
2019-02-28T20:57:30.733Z,9.10
2019-02-28T21:00:01.092Z,9.83
2019-02-28T21:02:31.995Z,11.48
2019-02-28T21:05:02.372Z,17.45
2019-02-28T21:07:32.986Z,12.53
2019-02-28T21:10:05.094Z,7.00
2019-02-28T21:12:37.063Z,11.83
2019-02-28T21:15:07.907Z,17.02
2019-02-28T21:17:38.378Z,15.65
2019-02-28T21:20:10.033Z,14.83
2019-02-28T21:22:41.587Z,13.78
2019-02-28T21:25:12.291Z,13.05
2019-02-28T21:27:42.624Z,19.07
2019-02-28T21:30:16.522Z,14.15
2019-02-28T21:32:46.884Z,20.27
2019-02-28T21:35:17.787Z,25.10
2019-02-28T21:37:48.688Z,24.87
2019-02-28T21:40:19.318Z,21.48
2019-02-28T21:42:49.836Z,19.57
2019-02-28T21:45:20.219Z,20.57
2019-02-28T21:47:50.647Z,20.02
2019-02-28T21:50:21.145Z,23.00
2019-02-28T21:52:51.785Z,21.25
2019-02-28T21:55:23.199Z,22.32
2019-02-28T21:57:54.207Z,22.95
2019-02-28T22:00:24.865Z,25.70
2019-02-28T22:02:55.200Z,26.40
2019-02-28T22:05:25.531Z,26.17
2019-02-28T22:07:55.662Z,30.90
2019-02-28T22:10:25.912Z,28.87
2019-02-28T22:12:56.212Z,23.33
2019-02-28T22:15:26.489Z,26.87
2019-02-28T22:17:56.831Z,36.58
2019-02-28T22:20:27.654Z,31.50
2019-02-28T22:22:57.957Z,33.42
2019-02-28T22:25:28.211Z,30.25
2019-02-28T22:27:59.527Z,44.35
2019-02-28T22:30:49.947Z,40.30
2019-02-28T22:33:33.270Z,40.63
2019-02-28T22:36:04.938Z,46.02
2019-02-28T22:38:34.999Z,48.15
2019-02-28T22:41:05.334Z,57.40
2019-02-28T22:43:35.658Z,56.83
2019-02-28T22:46:05.979Z,58.43
2019-02-28T22:48:36.412Z,55.67
2019-02-28T22:51:06.665Z,56.70
2019-02-28T22:53:36.881Z,64.15
2019-02-28T22:56:07.092Z,61.33
2019-02-28T22:58:37.231Z,58.83
2019-02-28T23:01:12.147Z,61.17
2019-02-28T23:03:42.608Z,56.37
2019-02-28T23:06:12.794Z,63.80
2019-02-28T23:08:43.195Z,59.43
2019-02-28T23:11:13.815Z,75.20
2019-02-28T23:13:43.946Z,72.47
2019-02-28T23:16:14.172Z,59.95
2019-02-28T23:18:44.427Z,65.03
2019-02-28T23:21:14.616Z,71.02
2019-02-28T23:23:44.705Z,60.07
2019-02-28T23:26:15.599Z,74.43
2019-02-28T23:29:06.848Z,68.57
2019-02-28T23:32:15.327Z,71.60
2019-02-28T23:34:48.931Z,64.53
2019-02-28T23:37:19.047Z,68.33
2019-02-28T23:39:49.132Z,72.73
2019-02-28T23:42:19.259Z,67.80
2019-02-28T23:44:49.577Z,59.07
2019-02-28T23:47:19.755Z,63.73
2019-02-28T23:49:50.919Z,68.37
2019-02-28T23:52:20.985Z,78.27
2019-02-28T23:54:51.007Z,61.70
2019-02-28T23:57:21.070Z,67.77
2019-02-28T23:59:51.022Z,76.37
